SDM2456 UEEE-UNKL
Flight info
| Callsign | SDM2456 |
|---|---|
| Flight time | 2h 52m |
| Altitude | 36000 |
| Route | ABGUR G370 DEM W105 LANAP W339 BARIK W261 OKRIM |
| Aircraft | A319/M-SDFGIRWY/LB1 |
Departure
| Time | 2026-04-22 18:36 |
|---|---|
| Airport | Platon Oyunsky Yakutsk International Airport (UEEE) |
Arrival
| Time | 2026-04-22 21:28 |
|---|---|
| Airport | Krasnoyarsk International Airport (UNKL) |
| Time | Latitude | Longitude | Altitude | Speed | Heading |
|---|---|---|---|---|---|
| 2026-04-22 17:52 | 62.08919 | 129.75646 | 334 ft | 0 kts | 118° |
| 2026-04-22 18:23 | 62.08925 | 129.75623 | 332 ft | 3 kts | 118° |
| 2026-04-22 18:24 | 62.08948 | 129.75561 | 333 ft | 3 kts | 167° |
| 2026-04-22 18:24 | 62.08967 | 129.75562 | 331 ft | 3 kts | 207° |
| 2026-04-22 18:24 | 62.08971 | 129.75566 | 330 ft | 0 kts | 207° |
| 2026-04-22 18:29 | 62.08963 | 129.75559 | 331 ft | 4 kts | 201° |
| 2026-04-22 18:29 | 62.08920 | 129.75516 | 330 ft | 9 kts | 208° |
| 2026-04-22 18:29 | 62.08855 | 129.75439 | 331 ft | 12 kts | 209° |
| 2026-04-22 18:29 | 62.08781 | 129.75353 | 330 ft | 10 kts | 205° |
| 2026-04-22 18:30 | 62.08722 | 129.75412 | 334 ft | 11 kts | 123° |
| 2026-04-22 18:30 | 62.08608 | 129.75839 | 334 ft | 19 kts | 124° |
| 2026-04-22 18:30 | 62.08574 | 129.75937 | 332 ft | 5 kts | 126° |
| 2026-04-22 18:31 | 62.08548 | 129.76012 | 334 ft | 9 kts | 126° |
| 2026-04-22 18:31 | 62.08514 | 129.76154 | 334 ft | 13 kts | 95° |
| 2026-04-22 18:31 | 62.08591 | 129.76315 | 332 ft | 20 kts | 37° |
| 2026-04-22 18:31 | 62.08722 | 129.76526 | 331 ft | 28 kts | 37° |
| 2026-04-22 18:32 | 62.08888 | 129.76795 | 332 ft | 32 kts | 37° |
| 2026-04-22 18:32 | 62.09083 | 129.77105 | 331 ft | 38 kts | 36° |
| 2026-04-22 18:32 | 62.09308 | 129.77462 | 327 ft | 41 kts | 37° |
| 2026-04-22 18:32 | 62.09530 | 129.77822 | 328 ft | 40 kts | 37° |
| 2026-04-22 18:33 | 62.09752 | 129.78179 | 326 ft | 40 kts | 37° |
| 2026-04-22 18:33 | 62.09970 | 129.78526 | 325 ft | 38 kts | 36° |
| 2026-04-22 18:33 | 62.10185 | 129.78867 | 325 ft | 39 kts | 37° |
| 2026-04-22 18:33 | 62.10390 | 129.79202 | 325 ft | 34 kts | 37° |
| 2026-04-22 18:34 | 62.10552 | 129.79415 | 325 ft | 21 kts | 18° |
| 2026-04-22 18:34 | 62.10619 | 129.79502 | 325 ft | 12 kts | 117° |
| 2026-04-22 18:34 | 62.10565 | 129.79477 | 324 ft | 0 kts | 218° |
| 2026-04-22 18:35 | 62.10423 | 129.79244 | 325 ft | 64 kts | 217° |
| 2026-04-22 18:35 | 62.09864 | 129.78352 | 329 ft | 133 kts | 217° |
| 2026-04-22 18:36 | 62.09010 | 129.76968 | 618 ft | 159 kts | 218° |
| 2026-04-22 18:36 | 62.08112 | 129.75532 | 1265 ft | 163 kts | 216° |
| 2026-04-22 18:36 | 62.07188 | 129.74080 | 1940 ft | 167 kts | 213° |
| 2026-04-22 18:36 | 62.06248 | 129.72594 | 2607 ft | 169 kts | 214° |
| 2026-04-22 18:37 | 62.05320 | 129.71108 | 3299 ft | 168 kts | 214° |
| 2026-04-22 18:37 | 62.04362 | 129.69578 | 3786 ft | 181 kts | 214° |
| 2026-04-22 18:37 | 62.03652 | 129.68451 | 4013 ft | 196 kts | 214° |
| 2026-04-22 18:37 | 62.02097 | 129.65989 | 4481 ft | 224 kts | 215° |
| 2026-04-22 18:38 | 62.00780 | 129.63896 | 4881 ft | 249 kts | 215° |
| 2026-04-22 18:38 | 61.99351 | 129.61616 | 5587 ft | 262 kts | 215° |
| 2026-04-22 18:38 | 61.97945 | 129.59084 | 6514 ft | 269 kts | 228° |
| 2026-04-22 18:39 | 61.96980 | 129.51402 | 8261 ft | 286 kts | 280° |
| 2026-04-22 18:39 | 61.97752 | 129.47488 | 9130 ft | 292 kts | 302° |
| 2026-04-22 18:39 | 61.98865 | 129.43832 | 10021 ft | 297 kts | 303° |
| 2026-04-22 18:39 | 62.00019 | 129.40078 | 10583 ft | 313 kts | 303° |
| 2026-04-22 18:40 | 62.01252 | 129.36059 | 10860 ft | 336 kts | 303° |
| 2026-04-22 18:40 | 62.02565 | 129.31751 | 11263 ft | 354 kts | 302° |
| 2026-04-22 18:40 | 62.03912 | 129.27305 | 11967 ft | 360 kts | 302° |
| 2026-04-22 18:40 | 62.05274 | 129.22787 | 12729 ft | 365 kts | 302° |
| 2026-04-22 18:41 | 62.06649 | 129.18206 | 13492 ft | 369 kts | 302° |
| 2026-04-22 18:41 | 62.07567 | 129.15137 | 13986 ft | 372 kts | 302° |
| 2026-04-22 18:41 | 62.08965 | 129.10452 | 14648 ft | 376 kts | 302° |
| 2026-04-22 18:41 | 62.10376 | 129.05722 | 15326 ft | 380 kts | 302° |
| 2026-04-22 18:42 | 62.12267 | 128.99371 | 16213 ft | 385 kts | 301° |
| 2026-04-22 18:42 | 62.13238 | 128.96099 | 16672 ft | 387 kts | 301° |
| 2026-04-22 18:42 | 62.15160 | 128.89618 | 17559 ft | 392 kts | 301° |
| 2026-04-22 18:42 | 62.16106 | 128.86225 | 17999 ft | 394 kts | 296° |
| 2026-04-22 18:43 | 62.17160 | 128.80806 | 18627 ft | 396 kts | 285° |
| 2026-04-22 18:43 | 62.17758 | 128.75058 | 19207 ft | 396 kts | 276° |
| 2026-04-22 18:43 | 62.18186 | 128.69212 | 19804 ft | 399 kts | 276° |
| 2026-04-22 18:43 | 62.18618 | 128.63404 | 20396 ft | 402 kts | 276° |
| 2026-04-22 18:44 | 62.19059 | 128.57478 | 20995 ft | 405 kts | 276° |
| 2026-04-22 18:44 | 62.19507 | 128.51439 | 21583 ft | 407 kts | 276° |
| 2026-04-22 18:44 | 62.19947 | 128.45418 | 22153 ft | 410 kts | 276° |
| 2026-04-22 18:44 | 62.20382 | 128.39443 | 22709 ft | 413 kts | 275° |
| 2026-04-22 18:45 | 62.20825 | 128.33337 | 23261 ft | 416 kts | 275° |
| 2026-04-22 18:45 | 62.21266 | 128.27196 | 23789 ft | 419 kts | 275° |
| 2026-04-22 18:45 | 62.21710 | 128.21004 | 24231 ft | 422 kts | 275° |
| 2026-04-22 18:45 | 62.22151 | 128.14773 | 24656 ft | 425 kts | 275° |
| 2026-04-22 18:46 | 62.22593 | 128.08485 | 25075 ft | 428 kts | 275° |
| 2026-04-22 18:46 | 62.23035 | 128.02153 | 25488 ft | 431 kts | 275° |
| 2026-04-22 18:46 | 62.23476 | 127.95774 | 25895 ft | 434 kts | 275° |
| 2026-04-22 18:46 | 62.23919 | 127.89331 | 26307 ft | 438 kts | 275° |
| 2026-04-22 18:47 | 62.24362 | 127.82841 | 26710 ft | 441 kts | 274° |
| 2026-04-22 18:47 | 62.24809 | 127.76311 | 27106 ft | 444 kts | 274° |
| 2026-04-22 18:47 | 62.25255 | 127.69737 | 27501 ft | 447 kts | 274° |
| 2026-04-22 18:47 | 62.25695 | 127.63191 | 27885 ft | 450 kts | 274° |
| 2026-04-22 18:48 | 62.26145 | 127.56436 | 28261 ft | 453 kts | 274° |
| 2026-04-22 18:48 | 62.26582 | 127.49808 | 28624 ft | 456 kts | 274° |
| 2026-04-22 18:48 | 62.27026 | 127.43031 | 28981 ft | 459 kts | 274° |
| 2026-04-22 18:48 | 62.27468 | 127.36222 | 29338 ft | 462 kts | 274° |
| 2026-04-22 18:49 | 62.27910 | 127.29374 | 29684 ft | 465 kts | 273° |
| 2026-04-22 18:49 | 62.28351 | 127.22477 | 30031 ft | 468 kts | 273° |
| 2026-04-22 18:49 | 62.28793 | 127.15536 | 30351 ft | 470 kts | 273° |
| 2026-04-22 18:49 | 62.29234 | 127.08568 | 30671 ft | 471 kts | 273° |
| 2026-04-22 18:50 | 62.29668 | 127.01594 | 31129 ft | 470 kts | 273° |
| 2026-04-22 18:50 | 62.30097 | 126.94648 | 31573 ft | 468 kts | 273° |
| 2026-04-22 18:50 | 62.30527 | 126.87738 | 32023 ft | 466 kts | 273° |
| 2026-04-22 18:50 | 62.30965 | 126.80839 | 32488 ft | 465 kts | 273° |
| 2026-04-22 18:51 | 62.31404 | 126.73963 | 32928 ft | 463 kts | 273° |
| 2026-04-22 18:51 | 62.31840 | 126.67113 | 33375 ft | 462 kts | 273° |
| 2026-04-22 18:51 | 62.32271 | 126.60285 | 33827 ft | 460 kts | 273° |
| 2026-04-22 18:51 | 62.32696 | 126.53473 | 34256 ft | 459 kts | 273° |
| 2026-04-22 18:52 | 62.33116 | 126.46680 | 34632 ft | 458 kts | 273° |
| 2026-04-22 18:52 | 62.33534 | 126.39898 | 34987 ft | 457 kts | 273° |
| 2026-04-22 18:52 | 62.33946 | 126.33120 | 35328 ft | 456 kts | 272° |
| 2026-04-22 18:52 | 62.34354 | 126.26336 | 35683 ft | 456 kts | 272° |
| 2026-04-22 18:53 | 62.34753 | 126.19652 | 36013 ft | 455 kts | 272° |
| 2026-04-22 18:53 | 62.35154 | 126.12882 | 36157 ft | 456 kts | 272° |
| 2026-04-22 18:53 | 62.35945 | 125.99368 | 36187 ft | 455 kts | 272° |
| 2026-04-22 18:54 | 62.36718 | 125.85857 | 36175 ft | 454 kts | 272° |
| 2026-04-22 18:54 | 62.37476 | 125.72335 | 36176 ft | 454 kts | 272° |
| 2026-04-22 18:55 | 62.38228 | 125.58797 | 36172 ft | 454 kts | 272° |
| 2026-04-22 18:55 | 62.38965 | 125.45264 | 36171 ft | 454 kts | 271° |
| 2026-04-22 18:56 | 62.39680 | 125.31739 | 36172 ft | 454 kts | 271° |
| 2026-04-22 18:56 | 62.40383 | 125.18291 | 36172 ft | 454 kts | 271° |
| 2026-04-22 18:57 | 62.41085 | 125.04744 | 36168 ft | 454 kts | 271° |
| 2026-04-22 18:57 | 62.41767 | 124.91203 | 36167 ft | 454 kts | 271° |
| 2026-04-22 18:58 | 62.42436 | 124.77643 | 36162 ft | 454 kts | 270° |
| 2026-04-22 18:58 | 62.43099 | 124.64065 | 36164 ft | 454 kts | 270° |
| 2026-04-22 18:59 | 62.43747 | 124.50493 | 36162 ft | 454 kts | 270° |
| 2026-04-22 18:59 | 62.44377 | 124.36910 | 36160 ft | 454 kts | 270° |
| 2026-04-22 19:00 | 62.44990 | 124.23321 | 36161 ft | 454 kts | 270° |
| 2026-04-22 19:00 | 62.45596 | 124.09728 | 36159 ft | 454 kts | 269° |
| 2026-04-22 19:01 | 62.46181 | 123.96226 | 36156 ft | 454 kts | 269° |
| 2026-04-22 19:01 | 62.46755 | 123.82622 | 36160 ft | 454 kts | 269° |
| 2026-04-22 19:02 | 62.47346 | 123.69017 | 36157 ft | 454 kts | 269° |
| 2026-04-22 19:02 | 62.47944 | 123.55423 | 36154 ft | 454 kts | 269° |
| 2026-04-22 19:03 | 62.48519 | 123.41812 | 36156 ft | 454 kts | 269° |
| 2026-04-22 19:03 | 62.49073 | 123.28208 | 36154 ft | 454 kts | 268° |
| 2026-04-22 19:04 | 62.49617 | 123.14610 | 36154 ft | 454 kts | 268° |
| 2026-04-22 19:04 | 62.50148 | 123.01012 | 36154 ft | 454 kts | 268° |
| 2026-04-22 19:05 | 62.50673 | 122.87492 | 36154 ft | 454 kts | 268° |
| 2026-04-22 19:05 | 62.51176 | 122.73887 | 36151 ft | 454 kts | 267° |
| 2026-04-22 19:06 | 62.51664 | 122.60275 | 36150 ft | 453 kts | 267° |
| 2026-04-22 19:07 | 62.52369 | 122.39854 | 36148 ft | 453 kts | 267° |
| 2026-04-22 19:07 | 62.52826 | 122.26232 | 36146 ft | 453 kts | 266° |
| 2026-04-22 19:08 | 62.53274 | 122.12605 | 36144 ft | 453 kts | 266° |
| 2026-04-22 19:08 | 62.53707 | 121.98974 | 36140 ft | 453 kts | 266° |
| 2026-04-22 19:09 | 62.54115 | 121.85433 | 36138 ft | 453 kts | 266° |
| 2026-04-22 19:09 | 62.54452 | 121.74101 | 36138 ft | 453 kts | 266° |
| 2026-04-22 19:10 | 62.54920 | 121.58166 | 36137 ft | 453 kts | 266° |
| 2026-04-22 19:10 | 62.55301 | 121.44514 | 36136 ft | 453 kts | 265° |
| 2026-04-22 19:11 | 62.55656 | 121.30977 | 36137 ft | 453 kts | 265° |
| 2026-04-22 19:11 | 62.55977 | 121.17362 | 36135 ft | 452 kts | 265° |
| 2026-04-22 19:12 | 62.56216 | 121.03758 | 36132 ft | 452 kts | 264° |
| 2026-04-22 19:12 | 62.56437 | 120.90144 | 34326 ft | 452 kts | 266° |
| 2026-04-22 19:12 | 62.56546 | 120.83308 | 34500 ft | 454 kts | 271° |
| 2026-04-22 19:13 | 62.56656 | 120.76467 | 34700 ft | 454 kts | 271° |
| 2026-04-22 19:13 | 62.56764 | 120.69628 | 34900 ft | 454 kts | 271° |
| 2026-04-22 19:13 | 62.56869 | 120.62783 | 35100 ft | 454 kts | 271° |
| 2026-04-22 19:13 | 62.56971 | 120.55948 | 35300 ft | 453 kts | 271° |
| 2026-04-22 19:14 | 62.57072 | 120.49110 | 35498 ft | 453 kts | 271° |
| 2026-04-22 19:14 | 62.57168 | 120.42284 | 35697 ft | 453 kts | 271° |
| 2026-04-22 19:14 | 62.57264 | 120.35459 | 35896 ft | 452 kts | 271° |
| 2026-04-22 19:14 | 62.57357 | 120.28640 | 36006 ft | 454 kts | 271° |
| 2026-04-22 19:15 | 62.57415 | 120.24109 | 36014 ft | 454 kts | 271° |
| 2026-04-22 19:15 | 62.57603 | 120.08103 | 36021 ft | 453 kts | 271° |
| 2026-04-22 19:16 | 62.57749 | 119.94462 | 36019 ft | 452 kts | 271° |
| 2026-04-22 19:16 | 62.57883 | 119.80909 | 36015 ft | 452 kts | 271° |
| 2026-04-22 19:17 | 62.57998 | 119.67282 | 36010 ft | 451 kts | 271° |
| 2026-04-22 19:17 | 62.58107 | 119.53668 | 36007 ft | 451 kts | 271° |
| 2026-04-22 19:18 | 62.58246 | 119.40047 | 36005 ft | 451 kts | 271° |
| 2026-04-22 19:18 | 62.58380 | 119.26517 | 36000 ft | 451 kts | 271° |
| 2026-04-22 19:19 | 62.58493 | 119.12910 | 35998 ft | 451 kts | 270° |
| 2026-04-22 19:19 | 62.58582 | 118.99304 | 35997 ft | 451 kts | 270° |
| 2026-04-22 19:20 | 62.58659 | 118.85690 | 35996 ft | 451 kts | 270° |
| 2026-04-22 19:20 | 62.58734 | 118.72165 | 35995 ft | 451 kts | 270° |
| 2026-04-22 19:21 | 62.58794 | 118.58551 | 35995 ft | 451 kts | 270° |
| 2026-04-22 19:21 | 62.58835 | 118.44931 | 35995 ft | 451 kts | 270° |
| 2026-04-22 19:22 | 62.58857 | 118.31322 | 35995 ft | 451 kts | 270° |
| 2026-04-22 19:22 | 62.58877 | 118.17729 | 35995 ft | 451 kts | 270° |
| 2026-04-22 19:23 | 62.58882 | 118.04106 | 35995 ft | 451 kts | 270° |
| 2026-04-22 19:23 | 62.58864 | 117.90588 | 35994 ft | 451 kts | 269° |
| 2026-04-22 19:24 | 62.58847 | 117.76982 | 35994 ft | 451 kts | 269° |
| 2026-04-22 19:24 | 62.58831 | 117.63360 | 35994 ft | 451 kts | 269° |
| 2026-04-22 19:25 | 62.58791 | 117.49750 | 35994 ft | 451 kts | 269° |
| 2026-04-22 19:25 | 62.58734 | 117.36248 | 35994 ft | 451 kts | 269° |
| 2026-04-22 19:26 | 62.58669 | 117.22641 | 35994 ft | 451 kts | 269° |
| 2026-04-22 19:26 | 62.58601 | 117.09044 | 35995 ft | 451 kts | 269° |
| 2026-04-22 19:27 | 62.58513 | 116.95436 | 35994 ft | 451 kts | 269° |
| 2026-04-22 19:27 | 62.58401 | 116.81835 | 35994 ft | 451 kts | 269° |
| 2026-04-22 19:28 | 62.58306 | 116.68233 | 35996 ft | 451 kts | 269° |
| 2026-04-22 19:28 | 62.58225 | 116.54711 | 35994 ft | 451 kts | 269° |
| 2026-04-22 19:29 | 62.58132 | 116.41121 | 35994 ft | 451 kts | 269° |
| 2026-04-22 19:29 | 62.58016 | 116.27504 | 35994 ft | 451 kts | 268° |
| 2026-04-22 19:30 | 62.57927 | 116.18497 | 35995 ft | 451 kts | 268° |
| 2026-04-22 19:30 | 62.57728 | 116.00391 | 35995 ft | 451 kts | 268° |
| 2026-04-22 19:31 | 62.57572 | 115.86788 | 35995 ft | 451 kts | 268° |
| 2026-04-22 19:31 | 62.57401 | 115.73178 | 35995 ft | 451 kts | 268° |
| 2026-04-22 19:32 | 62.57213 | 115.59596 | 35995 ft | 451 kts | 268° |
| 2026-04-22 19:32 | 62.57014 | 115.46013 | 35995 ft | 451 kts | 268° |
| 2026-04-22 19:33 | 62.56839 | 115.34718 | 35997 ft | 451 kts | 268° |
| 2026-04-22 19:33 | 62.56622 | 115.21124 | 35995 ft | 451 kts | 268° |
| 2026-04-22 19:34 | 62.56392 | 115.07518 | 35995 ft | 451 kts | 268° |
| 2026-04-22 19:34 | 62.56146 | 114.93938 | 35996 ft | 451 kts | 267° |
| 2026-04-22 19:35 | 62.55881 | 114.80458 | 35996 ft | 451 kts | 267° |
| 2026-04-22 19:35 | 62.55605 | 114.66863 | 35996 ft | 451 kts | 267° |
| 2026-04-22 19:36 | 62.55325 | 114.53276 | 35996 ft | 451 kts | 267° |
| 2026-04-22 19:36 | 62.55027 | 114.39704 | 35996 ft | 451 kts | 267° |
| 2026-04-22 19:37 | 62.54715 | 114.26104 | 35996 ft | 451 kts | 266° |
| 2026-04-22 19:37 | 62.54377 | 114.12614 | 35996 ft | 451 kts | 266° |
| 2026-04-22 19:38 | 62.53501 | 113.99210 | 35999 ft | 450 kts | 252° |
| 2026-04-22 19:38 | 62.51258 | 113.86556 | 35995 ft | 450 kts | 248° |
| 2026-04-22 19:39 | 62.48940 | 113.74008 | 35993 ft | 450 kts | 248° |
| 2026-04-22 19:39 | 62.46603 | 113.61450 | 35996 ft | 450 kts | 248° |
| 2026-04-22 19:40 | 62.44268 | 113.48986 | 35996 ft | 450 kts | 248° |
| 2026-04-22 19:40 | 62.41905 | 113.36462 | 35994 ft | 450 kts | 248° |
| 2026-04-22 19:41 | 62.39534 | 113.23960 | 35998 ft | 450 kts | 248° |
| 2026-04-22 19:41 | 62.37143 | 113.11470 | 35997 ft | 450 kts | 247° |
| 2026-04-22 19:42 | 62.34737 | 112.98993 | 35997 ft | 450 kts | 247° |
| 2026-04-22 19:42 | 62.32343 | 112.86624 | 36002 ft | 450 kts | 247° |
| 2026-04-22 19:43 | 62.28710 | 112.67992 | 36000 ft | 450 kts | 247° |
| 2026-04-22 19:43 | 62.26278 | 112.55581 | 36001 ft | 450 kts | 247° |
| 2026-04-22 19:44 | 62.23829 | 112.43189 | 35996 ft | 450 kts | 247° |
| 2026-04-22 19:44 | 62.21375 | 112.30836 | 35999 ft | 450 kts | 246° |
| 2026-04-22 19:45 | 62.18911 | 112.18556 | 35999 ft | 450 kts | 246° |
| 2026-04-22 19:45 | 62.16431 | 112.06231 | 36003 ft | 450 kts | 246° |
| 2026-04-22 19:46 | 62.13943 | 111.93934 | 36002 ft | 450 kts | 246° |
| 2026-04-22 19:46 | 62.11453 | 111.81726 | 35997 ft | 450 kts | 246° |
| 2026-04-22 19:47 | 62.08939 | 111.69479 | 36000 ft | 450 kts | 246° |
| 2026-04-22 19:47 | 62.06414 | 111.57212 | 36002 ft | 450 kts | 246° |
| 2026-04-22 19:48 | 62.03881 | 111.44995 | 36003 ft | 450 kts | 246° |
| 2026-04-22 19:48 | 62.01342 | 111.32866 | 36002 ft | 450 kts | 246° |
| 2026-04-22 19:49 | 61.98778 | 111.20683 | 36003 ft | 450 kts | 245° |
| 2026-04-22 19:49 | 61.96209 | 111.08520 | 36000 ft | 450 kts | 245° |
| 2026-04-22 19:50 | 61.93644 | 110.96444 | 35998 ft | 450 kts | 245° |
| 2026-04-22 19:50 | 61.91054 | 110.84332 | 35999 ft | 450 kts | 245° |
| 2026-04-22 19:51 | 61.88455 | 110.72230 | 35999 ft | 450 kts | 245° |
| 2026-04-22 19:51 | 61.86987 | 110.65432 | 36002 ft | 450 kts | 245° |
| 2026-04-22 19:52 | 61.85380 | 110.57993 | 36001 ft | 450 kts | 245° |
| 2026-04-22 19:52 | 61.82766 | 110.45940 | 36000 ft | 450 kts | 245° |
| 2026-04-22 19:53 | 61.80131 | 110.33915 | 36000 ft | 451 kts | 245° |
| 2026-04-22 19:53 | 61.77505 | 110.22000 | 35999 ft | 451 kts | 245° |
| 2026-04-22 19:54 | 61.74855 | 110.10003 | 36005 ft | 451 kts | 245° |
| 2026-04-22 19:54 | 61.72194 | 109.98034 | 36002 ft | 451 kts | 244° |
| 2026-04-22 19:55 | 61.69516 | 109.86079 | 36004 ft | 451 kts | 244° |
| 2026-04-22 19:55 | 61.66836 | 109.74140 | 36003 ft | 451 kts | 244° |
| 2026-04-22 19:56 | 61.64141 | 109.62237 | 36001 ft | 451 kts | 244° |
| 2026-04-22 19:56 | 61.61437 | 109.50351 | 36003 ft | 451 kts | 244° |
| 2026-04-22 19:57 | 61.58716 | 109.38479 | 36001 ft | 451 kts | 244° |
| 2026-04-22 19:57 | 61.56005 | 109.26709 | 36004 ft | 451 kts | 244° |
| 2026-04-22 19:58 | 61.53260 | 109.14850 | 36003 ft | 451 kts | 244° |
| 2026-04-22 19:58 | 61.50511 | 109.03053 | 36004 ft | 451 kts | 244° |
| 2026-04-22 20:00 | 61.40832 | 108.61959 | 36008 ft | 451 kts | 243° |
| 2026-04-22 20:01 | 61.38043 | 108.50224 | 36004 ft | 451 kts | 243° |
| 2026-04-22 20:01 | 61.35258 | 108.38585 | 36005 ft | 451 kts | 243° |
| 2026-04-22 20:02 | 61.32441 | 108.26893 | 36004 ft | 451 kts | 243° |
| 2026-04-22 20:02 | 61.29614 | 108.15236 | 36007 ft | 451 kts | 243° |
| 2026-04-22 20:03 | 61.26853 | 108.03527 | 36005 ft | 451 kts | 249° |
| 2026-04-22 20:03 | 61.25094 | 107.91036 | 36007 ft | 451 kts | 255° |
| 2026-04-22 20:04 | 61.23439 | 107.78557 | 36005 ft | 451 kts | 254° |
| 2026-04-22 20:04 | 61.21748 | 107.66021 | 36005 ft | 451 kts | 254° |
| 2026-04-22 20:05 | 61.20051 | 107.53475 | 36005 ft | 451 kts | 254° |
| 2026-04-22 20:05 | 61.18358 | 107.41037 | 36003 ft | 451 kts | 254° |
| 2026-04-22 20:06 | 61.16631 | 107.28543 | 36004 ft | 451 kts | 254° |
| 2026-04-22 20:06 | 61.14897 | 107.16037 | 36006 ft | 451 kts | 253° |
| 2026-04-22 20:07 | 61.13156 | 107.03545 | 36006 ft | 451 kts | 253° |
| 2026-04-22 20:07 | 61.11405 | 106.91068 | 36005 ft | 451 kts | 253° |
| 2026-04-22 20:08 | 61.09655 | 106.78694 | 36006 ft | 451 kts | 253° |
| 2026-04-22 20:08 | 61.07878 | 106.66261 | 36006 ft | 451 kts | 253° |
| 2026-04-22 20:09 | 61.06087 | 106.53829 | 36007 ft | 451 kts | 253° |
| 2026-04-22 20:09 | 61.04298 | 106.41494 | 36007 ft | 451 kts | 253° |
| 2026-04-22 20:10 | 61.02478 | 106.29102 | 36007 ft | 451 kts | 253° |
| 2026-04-22 20:10 | 61.00652 | 106.16727 | 36008 ft | 451 kts | 253° |
| 2026-04-22 20:11 | 60.98824 | 106.04350 | 36013 ft | 451 kts | 253° |
| 2026-04-22 20:11 | 60.96986 | 105.91985 | 36008 ft | 451 kts | 252° |
| 2026-04-22 20:12 | 60.95139 | 105.79737 | 36008 ft | 451 kts | 252° |
| 2026-04-22 20:12 | 60.93587 | 105.69486 | 36005 ft | 451 kts | 252° |
| 2026-04-22 20:13 | 60.91393 | 105.55115 | 36004 ft | 451 kts | 252° |
| 2026-04-22 20:13 | 60.89517 | 105.42896 | 36006 ft | 451 kts | 252° |
| 2026-04-22 20:14 | 60.87617 | 105.30615 | 36010 ft | 451 kts | 252° |
| 2026-04-22 20:14 | 60.85707 | 105.18341 | 36007 ft | 451 kts | 252° |
| 2026-04-22 20:15 | 60.83783 | 105.06080 | 36006 ft | 451 kts | 252° |
| 2026-04-22 20:15 | 60.81856 | 104.93917 | 36007 ft | 451 kts | 252° |
| 2026-04-22 20:16 | 60.79907 | 104.81687 | 36006 ft | 451 kts | 252° |
| 2026-04-22 20:16 | 60.77948 | 104.69489 | 36012 ft | 451 kts | 251° |
| 2026-04-22 20:17 | 60.75991 | 104.57359 | 36010 ft | 451 kts | 251° |
| 2026-04-22 20:17 | 60.74019 | 104.45174 | 36012 ft | 451 kts | 251° |
| 2026-04-22 20:18 | 60.72020 | 104.32985 | 36014 ft | 451 kts | 251° |
| 2026-04-22 20:18 | 60.70024 | 104.20912 | 36011 ft | 451 kts | 251° |
| 2026-04-22 20:19 | 60.68004 | 104.08755 | 36015 ft | 452 kts | 251° |
| 2026-04-22 20:19 | 60.65968 | 103.96619 | 36018 ft | 452 kts | 251° |
| 2026-04-22 20:20 | 60.63940 | 103.84576 | 36019 ft | 452 kts | 251° |
| 2026-04-22 20:20 | 60.61890 | 103.72472 | 36019 ft | 452 kts | 251° |
| 2026-04-22 20:21 | 60.59822 | 103.60385 | 36019 ft | 451 kts | 250° |
| 2026-04-22 20:21 | 60.57748 | 103.48317 | 36017 ft | 451 kts | 250° |
| 2026-04-22 20:22 | 60.55673 | 103.36277 | 36014 ft | 451 kts | 250° |
| 2026-04-22 20:22 | 60.53592 | 103.24351 | 36010 ft | 450 kts | 250° |
| 2026-04-22 20:23 | 60.51487 | 103.12348 | 36007 ft | 451 kts | 250° |
| 2026-04-22 20:23 | 60.49366 | 103.00357 | 36006 ft | 451 kts | 250° |
| 2026-04-22 20:24 | 60.47247 | 102.88383 | 36005 ft | 451 kts | 250° |
| 2026-04-22 20:24 | 60.45138 | 102.76511 | 36004 ft | 451 kts | 250° |
| 2026-04-22 20:25 | 60.42997 | 102.64565 | 36005 ft | 450 kts | 250° |
| 2026-04-22 20:25 | 60.40844 | 102.52661 | 36000 ft | 450 kts | 250° |
| 2026-04-22 20:26 | 60.38679 | 102.40776 | 36001 ft | 450 kts | 250° |
| 2026-04-22 20:26 | 60.36752 | 102.31003 | 36000 ft | 450 kts | 242° |
| 2026-04-22 20:27 | 60.33257 | 102.20533 | 35997 ft | 450 kts | 233° |
| 2026-04-22 20:27 | 60.29519 | 102.10371 | 35996 ft | 450 kts | 233° |
| 2026-04-22 20:28 | 60.25819 | 102.00298 | 35998 ft | 450 kts | 233° |
| 2026-04-22 20:28 | 60.22085 | 101.90171 | 36003 ft | 450 kts | 233° |
| 2026-04-22 20:29 | 60.18336 | 101.80077 | 36002 ft | 450 kts | 233° |
| 2026-04-22 20:29 | 60.14581 | 101.70016 | 35998 ft | 450 kts | 233° |
| 2026-04-22 20:30 | 60.10832 | 101.59940 | 35999 ft | 450 kts | 233° |
| 2026-04-22 20:30 | 60.07099 | 101.49950 | 36002 ft | 450 kts | 233° |
| 2026-04-22 20:31 | 60.03332 | 101.39926 | 36004 ft | 450 kts | 233° |
| 2026-04-22 20:31 | 59.99558 | 101.29937 | 36000 ft | 450 kts | 233° |
| 2026-04-22 20:32 | 59.95779 | 101.19954 | 36000 ft | 450 kts | 233° |
| 2026-04-22 20:32 | 59.91989 | 101.10002 | 36001 ft | 450 kts | 232° |
| 2026-04-22 20:33 | 59.88190 | 101.00075 | 36002 ft | 450 kts | 232° |
| 2026-04-22 20:33 | 59.84376 | 100.90155 | 36004 ft | 451 kts | 232° |
| 2026-04-22 20:34 | 59.80588 | 100.80322 | 36005 ft | 451 kts | 232° |
| 2026-04-22 20:34 | 59.76769 | 100.70449 | 36005 ft | 450 kts | 232° |
| 2026-04-22 20:35 | 59.72937 | 100.60598 | 36007 ft | 451 kts | 232° |
| 2026-04-22 20:35 | 59.69099 | 100.50786 | 36006 ft | 451 kts | 232° |
| 2026-04-22 20:36 | 59.65249 | 100.40976 | 36007 ft | 450 kts | 232° |
| 2026-04-22 20:36 | 59.61397 | 100.31202 | 36004 ft | 450 kts | 232° |
| 2026-04-22 20:37 | 59.57574 | 100.21506 | 36003 ft | 450 kts | 232° |
| 2026-04-22 20:37 | 59.53712 | 100.11761 | 36003 ft | 450 kts | 232° |
| 2026-04-22 20:38 | 59.49835 | 100.02066 | 36002 ft | 450 kts | 232° |
| 2026-04-22 20:38 | 59.45954 | 99.92386 | 36002 ft | 450 kts | 232° |
| 2026-04-22 20:39 | 59.42096 | 99.82773 | 36004 ft | 450 kts | 231° |
| 2026-04-22 20:39 | 59.38213 | 99.73140 | 36004 ft | 450 kts | 231° |
| 2026-04-22 20:40 | 59.34314 | 99.63531 | 36000 ft | 450 kts | 231° |
| 2026-04-22 20:40 | 59.30407 | 99.53944 | 35998 ft | 450 kts | 231° |
| 2026-04-22 20:41 | 59.26501 | 99.44383 | 35997 ft | 450 kts | 231° |
| 2026-04-22 20:41 | 59.22575 | 99.34822 | 35998 ft | 450 kts | 231° |
| 2026-04-22 20:42 | 59.18681 | 99.25363 | 36004 ft | 450 kts | 231° |
| 2026-04-22 20:42 | 59.14741 | 99.15846 | 36003 ft | 450 kts | 231° |
| 2026-04-22 20:43 | 59.10798 | 99.06353 | 36002 ft | 450 kts | 231° |
| 2026-04-22 20:43 | 59.06866 | 98.96937 | 36002 ft | 450 kts | 231° |
| 2026-04-22 20:44 | 59.02906 | 98.87504 | 36005 ft | 450 kts | 231° |
| 2026-04-22 20:44 | 58.98940 | 98.78062 | 36003 ft | 450 kts | 231° |
| 2026-04-22 20:45 | 58.94975 | 98.68651 | 36002 ft | 450 kts | 231° |
| 2026-04-22 20:45 | 58.91023 | 98.59319 | 36006 ft | 450 kts | 230° |
| 2026-04-22 20:46 | 58.85056 | 98.45300 | 36005 ft | 450 kts | 230° |
| 2026-04-22 20:46 | 58.81067 | 98.35970 | 36005 ft | 450 kts | 230° |
| 2026-04-22 20:47 | 58.77064 | 98.26667 | 36003 ft | 450 kts | 230° |
| 2026-04-22 20:47 | 58.73052 | 98.17400 | 36007 ft | 451 kts | 230° |
| 2026-04-22 20:48 | 58.69066 | 98.08191 | 36010 ft | 451 kts | 230° |
| 2026-04-22 20:48 | 58.65044 | 97.98928 | 36010 ft | 451 kts | 230° |
| 2026-04-22 20:49 | 58.61018 | 97.89691 | 36010 ft | 450 kts | 230° |
| 2026-04-22 20:49 | 58.57008 | 97.80555 | 36007 ft | 451 kts | 230° |
| 2026-04-22 20:50 | 58.52966 | 97.71368 | 36008 ft | 451 kts | 230° |
| 2026-04-22 20:50 | 58.48924 | 97.62201 | 36012 ft | 451 kts | 230° |
| 2026-04-22 20:51 | 58.44873 | 97.53035 | 36009 ft | 451 kts | 230° |
| 2026-04-22 20:51 | 58.40812 | 97.43924 | 36010 ft | 451 kts | 230° |
| 2026-04-22 20:52 | 58.36927 | 97.34651 | 36009 ft | 451 kts | 237° |
| 2026-04-22 20:52 | 58.33561 | 97.24558 | 36010 ft | 451 kts | 237° |
| 2026-04-22 20:53 | 58.30173 | 97.14513 | 36008 ft | 450 kts | 237° |
| 2026-04-22 20:53 | 58.26784 | 97.04503 | 36008 ft | 450 kts | 237° |
| 2026-04-22 20:54 | 58.23413 | 96.94558 | 36007 ft | 451 kts | 237° |
| 2026-04-22 20:54 | 58.20018 | 96.84571 | 36008 ft | 451 kts | 237° |
| 2026-04-22 20:55 | 58.16621 | 96.74594 | 36007 ft | 450 kts | 237° |
| 2026-04-22 20:55 | 58.13209 | 96.64628 | 36007 ft | 451 kts | 237° |
| 2026-04-22 20:56 | 58.09782 | 96.54699 | 36011 ft | 451 kts | 237° |
| 2026-04-22 20:56 | 58.06348 | 96.44774 | 36012 ft | 451 kts | 237° |
| 2026-04-22 20:57 | 58.02905 | 96.34863 | 36013 ft | 451 kts | 237° |
| 2026-04-22 20:57 | 57.99487 | 96.25035 | 36013 ft | 451 kts | 237° |
| 2026-04-22 20:58 | 57.96122 | 96.15044 | 36012 ft | 451 kts | 238° |
| 2026-04-22 20:58 | 57.92805 | 96.05007 | 36013 ft | 451 kts | 238° |
| 2026-04-22 20:59 | 57.89480 | 95.95013 | 36013 ft | 451 kts | 238° |
| 2026-04-22 20:59 | 57.86120 | 95.85062 | 36013 ft | 451 kts | 237° |
| 2026-04-22 21:00 | 57.82759 | 95.75191 | 36014 ft | 451 kts | 237° |
| 2026-04-22 21:00 | 57.79382 | 95.65279 | 36014 ft | 451 kts | 237° |
| 2026-04-22 21:01 | 57.75995 | 95.55374 | 36015 ft | 451 kts | 237° |
| 2026-04-22 21:01 | 57.72623 | 95.45546 | 36014 ft | 451 kts | 237° |
| 2026-04-22 21:02 | 57.69229 | 95.35654 | 36017 ft | 451 kts | 237° |
| 2026-04-22 21:02 | 57.65822 | 95.25806 | 36018 ft | 451 kts | 237° |
| 2026-04-22 21:03 | 57.62399 | 95.15978 | 36019 ft | 451 kts | 237° |
| 2026-04-22 21:03 | 57.58974 | 95.06155 | 36020 ft | 451 kts | 237° |
| 2026-04-22 21:04 | 57.55561 | 94.96405 | 36021 ft | 451 kts | 237° |
| 2026-04-22 21:04 | 57.52125 | 94.86625 | 36021 ft | 451 kts | 237° |
| 2026-04-22 21:05 | 57.48674 | 94.76844 | 36021 ft | 451 kts | 237° |
| 2026-04-22 21:05 | 57.45216 | 94.67094 | 36021 ft | 451 kts | 236° |
| 2026-04-22 21:06 | 57.41765 | 94.57429 | 36021 ft | 451 kts | 236° |
| 2026-04-22 21:06 | 57.38294 | 94.47714 | 36019 ft | 451 kts | 236° |
| 2026-04-22 21:07 | 57.34817 | 94.38021 | 36019 ft | 451 kts | 236° |
| 2026-04-22 21:07 | 57.31339 | 94.28347 | 36019 ft | 451 kts | 236° |
| 2026-04-22 21:08 | 57.27851 | 94.18703 | 36018 ft | 451 kts | 236° |
| 2026-04-22 21:08 | 57.24350 | 94.09089 | 36017 ft | 451 kts | 236° |
| 2026-04-22 21:09 | 57.20872 | 93.99541 | 35896 ft | 452 kts | 236° |
| 2026-04-22 21:09 | 57.19119 | 93.94739 | 35644 ft | 451 kts | 236° |
| 2026-04-22 21:09 | 57.17358 | 93.89925 | 34862 ft | 455 kts | 236° |
| 2026-04-22 21:10 | 57.15574 | 93.85056 | 33977 ft | 460 kts | 236° |
| 2026-04-22 21:10 | 57.13781 | 93.80168 | 33060 ft | 463 kts | 236° |
| 2026-04-22 21:10 | 57.11963 | 93.75228 | 31975 ft | 469 kts | 236° |
| 2026-04-22 21:10 | 57.10117 | 93.70235 | 30876 ft | 474 kts | 236° |
| 2026-04-22 21:11 | 57.08253 | 93.65216 | 30080 ft | 473 kts | 236° |
| 2026-04-22 21:11 | 57.06412 | 93.60262 | 29463 ft | 466 kts | 236° |
| 2026-04-22 21:11 | 57.04595 | 93.55369 | 28777 ft | 461 kts | 236° |
| 2026-04-22 21:11 | 57.02800 | 93.50541 | 28131 ft | 455 kts | 236° |
| 2026-04-22 21:12 | 57.01619 | 93.47373 | 27700 ft | 452 kts | 236° |
| 2026-04-22 21:12 | 56.99262 | 93.41068 | 26850 ft | 444 kts | 235° |
| 2026-04-22 21:12 | 56.97520 | 93.36424 | 26220 ft | 440 kts | 235° |
| 2026-04-22 21:12 | 56.95794 | 93.31838 | 25597 ft | 435 kts | 235° |
| 2026-04-22 21:13 | 56.94083 | 93.27308 | 24987 ft | 430 kts | 235° |
| 2026-04-22 21:13 | 56.92394 | 93.22839 | 24389 ft | 425 kts | 235° |
| 2026-04-22 21:13 | 56.90722 | 93.18416 | 23814 ft | 419 kts | 235° |
| 2026-04-22 21:13 | 56.88891 | 93.14311 | 23250 ft | 414 kts | 227° |
| 2026-04-22 21:14 | 56.86954 | 93.10455 | 22729 ft | 410 kts | 227° |
| 2026-04-22 21:14 | 56.85035 | 93.06635 | 22217 ft | 405 kts | 227° |
| 2026-04-22 21:14 | 56.83135 | 93.02861 | 21738 ft | 402 kts | 227° |
| 2026-04-22 21:14 | 56.81253 | 92.99120 | 21263 ft | 399 kts | 227° |
| 2026-04-22 21:15 | 56.79384 | 92.95408 | 20791 ft | 396 kts | 227° |
| 2026-04-22 21:15 | 56.77550 | 92.91776 | 20325 ft | 393 kts | 227° |
| 2026-04-22 21:15 | 56.75678 | 92.88075 | 19839 ft | 390 kts | 227° |
| 2026-04-22 21:15 | 56.73868 | 92.84501 | 19361 ft | 387 kts | 227° |
| 2026-04-22 21:16 | 56.72046 | 92.80908 | 18872 ft | 385 kts | 227° |
| 2026-04-22 21:16 | 56.70236 | 92.77348 | 18377 ft | 382 kts | 227° |
| 2026-04-22 21:16 | 56.68431 | 92.73810 | 17877 ft | 380 kts | 227° |
| 2026-04-22 21:16 | 56.66638 | 92.70306 | 17369 ft | 377 kts | 226° |
| 2026-04-22 21:17 | 56.64648 | 92.67240 | 16860 ft | 375 kts | 214° |
| 2026-04-22 21:17 | 56.62368 | 92.64989 | 16356 ft | 372 kts | 202° |
| 2026-04-22 21:17 | 56.59900 | 92.63632 | 15852 ft | 370 kts | 192° |
| 2026-04-22 21:17 | 56.57392 | 92.62645 | 15349 ft | 367 kts | 192° |
| 2026-04-22 21:18 | 56.54903 | 92.61655 | 14844 ft | 365 kts | 192° |
| 2026-04-22 21:18 | 56.52433 | 92.60664 | 14348 ft | 362 kts | 193° |
| 2026-04-22 21:18 | 56.50805 | 92.60007 | 14023 ft | 361 kts | 193° |
| 2026-04-22 21:18 | 56.48368 | 92.59019 | 13528 ft | 358 kts | 193° |
| 2026-04-22 21:19 | 56.45944 | 92.58039 | 13019 ft | 355 kts | 193° |
| 2026-04-22 21:19 | 56.43546 | 92.57075 | 12523 ft | 352 kts | 193° |
| 2026-04-22 21:19 | 56.41159 | 92.56122 | 12008 ft | 350 kts | 193° |
| 2026-04-22 21:19 | 56.38040 | 92.54825 | 11334 ft | 345 kts | 197° |
| 2026-04-22 21:20 | 56.36521 | 92.53819 | 10952 ft | 344 kts | 203° |
| 2026-04-22 21:20 | 56.34399 | 92.51859 | 10447 ft | 340 kts | 218° |
| 2026-04-22 21:20 | 56.32922 | 92.48696 | 10303 ft | 325 kts | 243° |
| 2026-04-22 21:20 | 56.32342 | 92.44880 | 10184 ft | 312 kts | 268° |
| 2026-04-22 21:21 | 56.32679 | 92.41132 | 10064 ft | 300 kts | 290° |
| 2026-04-22 21:21 | 56.33471 | 92.37712 | 9786 ft | 293 kts | 293° |
| 2026-04-22 21:21 | 56.34275 | 92.34316 | 9331 ft | 294 kts | 293° |
| 2026-04-22 21:21 | 56.35072 | 92.30955 | 8970 ft | 290 kts | 292° |
| 2026-04-22 21:22 | 56.35853 | 92.27658 | 8552 ft | 289 kts | 292° |
| 2026-04-22 21:22 | 56.36479 | 92.24278 | 8333 ft | 279 kts | 276° |
| 2026-04-22 21:22 | 56.36280 | 92.20923 | 8194 ft | 264 kts | 249° |
| 2026-04-22 21:22 | 56.35332 | 92.18251 | 7956 ft | 248 kts | 223° |
| 2026-04-22 21:23 | 56.33904 | 92.16615 | 7481 ft | 243 kts | 202° |
| 2026-04-22 21:23 | 56.32341 | 92.15444 | 6886 ft | 244 kts | 202° |
| 2026-04-22 21:23 | 56.30758 | 92.14256 | 6237 ft | 248 kts | 202° |
| 2026-04-22 21:23 | 56.29157 | 92.13050 | 5578 ft | 250 kts | 202° |
| 2026-04-22 21:24 | 56.27501 | 92.12483 | 5242 ft | 239 kts | 173° |
| 2026-04-22 21:24 | 56.25981 | 92.13647 | 4816 ft | 242 kts | 137° |
| 2026-04-22 21:24 | 56.25095 | 92.16145 | 4520 ft | 236 kts | 113° |
| 2026-04-22 21:24 | 56.24466 | 92.18870 | 4204 ft | 235 kts | 112° |
| 2026-04-22 21:25 | 56.23840 | 92.21577 | 3892 ft | 233 kts | 112° |
| 2026-04-22 21:25 | 56.23221 | 92.24220 | 3588 ft | 232 kts | 113° |
| 2026-04-22 21:25 | 56.22597 | 92.26879 | 3282 ft | 230 kts | 113° |
| 2026-04-22 21:25 | 56.21984 | 92.29482 | 2977 ft | 221 kts | 113° |
| 2026-04-22 21:26 | 56.21400 | 92.31965 | 2692 ft | 211 kts | 113° |
| 2026-04-22 21:26 | 56.20840 | 92.34336 | 2461 ft | 199 kts | 113° |
| 2026-04-22 21:26 | 56.20311 | 92.36576 | 2164 ft | 189 kts | 113° |
| 2026-04-22 21:26 | 56.19820 | 92.38656 | 1927 ft | 170 kts | 113° |
| 2026-04-22 21:27 | 56.19384 | 92.40500 | 1704 ft | 151 kts | 114° |
| 2026-04-22 21:27 | 56.18987 | 92.42175 | 1510 ft | 142 kts | 114° |
| 2026-04-22 21:27 | 56.18606 | 92.43784 | 1330 ft | 138 kts | 114° |
| 2026-04-22 21:27 | 56.18235 | 92.45358 | 1150 ft | 137 kts | 113° |
| 2026-04-22 21:28 | 56.17869 | 92.46931 | 968 ft | 136 kts | 113° |
| 2026-04-22 21:28 | 56.17540 | 92.48319 | 956 ft | 100 kts | 114° |
| 2026-04-22 21:28 | 56.17330 | 92.49174 | 953 ft | 50 kts | 114° |
| 2026-04-22 21:28 | 56.17218 | 92.49636 | 954 ft | 38 kts | 113° |
| 2026-04-22 21:29 | 56.17119 | 92.50063 | 953 ft | 33 kts | 112° |
| 2026-04-22 21:29 | 56.17036 | 92.50423 | 954 ft | 27 kts | 113° |
| 2026-04-22 21:29 | 56.16964 | 92.50724 | 955 ft | 25 kts | 113° |
| 2026-04-22 21:29 | 56.16896 | 92.51018 | 954 ft | 26 kts | 112° |
| 2026-04-22 21:30 | 56.16823 | 92.51313 | 952 ft | 26 kts | 115° |
| 2026-04-22 21:30 | 56.16676 | 92.51911 | 953 ft | 14 kts | 111° |
| 2026-04-22 21:30 | 56.16700 | 92.52031 | 955 ft | 12 kts | 9° |
| 2026-04-22 21:31 | 56.16775 | 92.52027 | 954 ft | 10 kts | 353° |
| 2026-04-22 21:31 | 56.16829 | 92.52015 | 955 ft | 0 kts | 353° |